createdAt,value
2023-05-25T00:02:15.643Z,21.50
2023-05-25T00:04:43.492Z,21.40
2023-05-25T00:07:11.314Z,21.30
2023-05-25T00:09:39.040Z,21.30
2023-05-25T00:12:07.587Z,21.30
2023-05-25T00:14:35.377Z,21.30
2023-05-25T00:17:04.451Z,21.30
2023-05-25T00:19:32.614Z,21.30
2023-05-25T00:22:02.395Z,21.10
2023-05-25T00:24:33.347Z,21.10
2023-05-25T00:27:01.569Z,21.00
2023-05-25T00:29:29.834Z,21.00
2023-05-25T00:31:57.582Z,21.00
2023-05-25T00:34:25.809Z,21.00
2023-05-25T00:36:54.508Z,21.00
2023-05-25T00:39:22.457Z,21.10
2023-05-25T00:41:50.501Z,21.10
2023-05-25T00:44:22.145Z,21.10
2023-05-25T00:46:52.530Z,21.20
2023-05-25T00:49:23.264Z,21.30
2023-05-25T00:51:52.571Z,21.30
2023-05-25T00:54:20.423Z,21.20
2023-05-25T00:56:52.586Z,21.20
2023-05-25T00:59:40.797Z,21.10
2023-05-25T01:02:10.666Z,21.00
2023-05-25T01:04:45.547Z,20.90
2023-05-25T01:07:25.464Z,21.00
2023-05-25T01:10:07.097Z,20.90
2023-05-25T01:12:40.805Z,20.90
2023-05-25T01:15:10.297Z,20.70
2023-05-25T01:17:38.800Z,20.40
2023-05-25T01:20:12.051Z,20.00
2023-05-25T01:22:55.792Z,19.90
2023-05-25T01:25:48.232Z,19.70
2023-05-25T01:28:24.321Z,19.60
2023-05-25T01:30:52.949Z,19.60
2023-05-25T01:33:21.939Z,19.50
2023-05-25T01:35:51.286Z,19.50
2023-05-25T01:38:19.495Z,19.60
2023-05-25T01:40:47.318Z,19.40
2023-05-25T01:43:16.490Z,19.30
2023-05-25T01:45:44.785Z,19.20
2023-05-25T01:48:33.082Z,19.20
2023-05-25T01:51:15.374Z,19.10
2023-05-25T01:53:49.020Z,19.10
2023-05-25T01:56:18.450Z,19.20
2023-05-25T01:58:48.576Z,19.30
2023-05-25T02:01:18.881Z,19.40
2023-05-25T02:03:51.917Z,19.50
2023-05-25T02:06:19.918Z,19.60
2023-05-25T02:08:47.940Z,19.70
2023-05-25T02:11:16.483Z,19.80
2023-05-25T02:13:46.030Z,19.70
2023-05-25T02:16:13.955Z,19.60
2023-05-25T02:18:46.108Z,19.60
2023-05-25T02:21:13.936Z,19.60
2023-05-25T02:23:41.899Z,19.50
2023-05-25T02:26:09.924Z,19.60
2023-05-25T02:28:38.476Z,19.60
2023-05-25T02:31:06.472Z,19.70
2023-05-25T02:33:34.486Z,19.70
2023-05-25T02:36:02.329Z,19.70
2023-05-25T02:38:30.277Z,19.70
2023-05-25T02:40:58.933Z,19.70
2023-05-25T02:43:26.815Z,19.70
2023-05-25T02:45:54.615Z,19.70
2023-05-25T02:48:23.119Z,19.60
2023-05-25T02:50:51.115Z,19.60
2023-05-25T02:53:19.144Z,19.60
2023-05-25T02:55:47.071Z,19.60
2023-05-25T02:58:19.313Z,19.60
2023-05-25T03:01:00.508Z,19.60
2023-05-25T03:03:29.049Z,19.60
2023-05-25T03:05:57.972Z,19.60
2023-05-25T03:08:26.370Z,19.50
2023-05-25T03:10:54.274Z,19.50
2023-05-25T03:13:22.063Z,19.50
2023-05-25T03:15:49.896Z,19.60
2023-05-25T03:18:18.169Z,19.60
2023-05-25T03:20:46.392Z,19.50
2023-05-25T03:23:14.504Z,19.50
2023-05-25T03:25:42.602Z,19.50
2023-05-25T03:28:11.142Z,19.50
2023-05-25T03:30:39.739Z,19.50
2023-05-25T03:33:07.589Z,19.40
2023-05-25T03:35:42.184Z,19.40
2023-05-25T03:38:10.190Z,19.40
2023-05-25T03:40:37.911Z,19.40
2023-05-25T03:43:05.714Z,19.50
2023-05-25T03:45:33.585Z,19.50
2023-05-25T03:48:01.492Z,19.50
2023-05-25T03:50:29.259Z,19.50
2023-05-25T03:52:57.990Z,19.50
2023-05-25T03:55:25.703Z,19.50
2023-05-25T03:57:53.620Z,19.50
2023-05-25T04:00:22.065Z,19.60
2023-05-25T04:02:50.687Z,19.60
2023-05-25T04:05:18.550Z,19.70
2023-05-25T04:07:46.564Z,19.70
2023-05-25T04:10:14.459Z,19.70
2023-05-25T04:12:42.192Z,19.70
2023-05-25T04:15:12.479Z,19.70
2023-05-25T04:17:51.474Z,19.70
2023-05-25T04:20:19.291Z,19.70
2023-05-25T04:22:47.865Z,19.70
2023-05-25T04:25:17.268Z,19.70
2023-05-25T04:27:46.925Z,19.70
2023-05-25T04:30:19.144Z,19.70
2023-05-25T04:33:05.420Z,19.70
2023-05-25T04:35:37.001Z,19.70
2023-05-25T04:38:07.349Z,19.80
2023-05-25T04:40:35.931Z,19.80
2023-05-25T04:43:05.386Z,19.80
2023-05-25T04:45:33.620Z,19.80
2023-05-25T04:48:03.214Z,19.70
2023-05-25T04:50:31.256Z,19.80
2023-05-25T04:52:59.098Z,19.60
2023-05-25T04:55:26.897Z,19.60
2023-05-25T04:57:55.272Z,19.60
2023-05-25T05:00:24.091Z,19.50
2023-05-25T05:02:56.892Z,19.60
2023-05-25T05:05:25.121Z,19.60
2023-05-25T05:07:54.079Z,19.70
2023-05-25T05:10:22.206Z,19.80
2023-05-25T05:12:55.097Z,19.90
2023-05-25T05:15:23.057Z,19.90
2023-05-25T05:17:51.207Z,19.90
2023-05-25T05:20:19.596Z,19.90
2023-05-25T05:22:47.553Z,20.00
2023-05-25T05:25:15.507Z,20.00
2023-05-25T05:27:43.336Z,20.10
2023-05-25T05:30:19.114Z,20.00
2023-05-25T05:32:47.036Z,20.10
2023-05-25T05:35:16.144Z,20.10
2023-05-25T05:37:47.238Z,20.20
2023-05-25T05:40:15.716Z,20.10
2023-05-25T05:42:43.598Z,20.10
2023-05-25T05:45:12.157Z,20.10
2023-05-25T05:47:39.951Z,20.20
2023-05-25T05:50:08.927Z,20.10
2023-05-25T05:52:38.295Z,20.20
2023-05-25T05:55:06.675Z,20.30
2023-05-25T05:57:34.634Z,20.30
2023-05-25T06:00:04.981Z,20.30
2023-05-25T06:02:43.124Z,20.30
2023-05-25T06:05:14.248Z,20.30
2023-05-25T06:07:43.678Z,20.40
2023-05-25T06:10:13.220Z,20.40
2023-05-25T06:12:40.975Z,20.40
2023-05-25T06:15:09.706Z,20.40
2023-05-25T06:17:39.180Z,20.40
2023-05-25T06:20:07.716Z,20.40
2023-05-25T06:22:36.159Z,20.40
2023-05-25T06:25:04.802Z,20.40
2023-05-25T06:27:32.689Z,20.40
2023-05-25T06:30:02.402Z,20.40
2023-05-25T06:32:31.093Z,20.40
2023-05-25T06:34:59.245Z,20.50
2023-05-25T06:37:27.983Z,20.50
2023-05-25T06:39:57.678Z,20.50
2023-05-25T06:42:25.818Z,20.60
2023-05-25T06:44:57.500Z,20.60
2023-05-25T06:47:27.534Z,20.60
2023-05-25T06:49:56.961Z,20.70
2023-05-25T06:52:25.064Z,20.70
2023-05-25T06:54:53.097Z,20.70
2023-05-25T06:57:21.483Z,20.80
2023-05-25T06:59:49.704Z,20.90
2023-05-25T07:02:19.197Z,20.90
2023-05-25T07:04:47.493Z,20.90
2023-05-25T07:07:15.834Z,20.90
2023-05-25T07:09:43.765Z,21.20
2023-05-25T07:12:11.815Z,21.40
2023-05-25T07:14:39.849Z,21.70
2023-05-25T07:17:08.235Z,21.90
2023-05-25T07:19:36.528Z,21.80
2023-05-25T07:22:05.380Z,21.70
2023-05-25T07:24:33.492Z,21.60
2023-05-25T07:27:02.188Z,21.50
2023-05-25T07:29:30.123Z,21.40
2023-05-25T07:31:57.884Z,21.40
2023-05-25T07:34:27.708Z,21.50
2023-05-25T07:36:55.914Z,21.80
2023-05-25T07:39:23.622Z,22.10
2023-05-25T07:41:51.396Z,22.20
2023-05-25T07:44:19.134Z,22.30
2023-05-25T07:46:47.009Z,22.10
2023-05-25T07:49:16.495Z,21.90
2023-05-25T07:51:47.917Z,21.80
2023-05-25T07:54:15.819Z,21.80
2023-05-25T07:56:43.721Z,21.80
2023-05-25T07:59:11.598Z,21.70
2023-05-25T08:01:39.348Z,21.60
2023-05-25T08:04:07.304Z,21.60
2023-05-25T08:06:35.118Z,21.60
2023-05-25T08:09:04.983Z,21.60
2023-05-25T08:11:32.725Z,21.70
2023-05-25T08:14:00.686Z,21.60
2023-05-25T08:16:28.517Z,21.60
2023-05-25T08:18:56.930Z,21.50
2023-05-25T08:21:24.649Z,21.60
2023-05-25T08:23:54.166Z,21.50
2023-05-25T08:28:53.608Z,21.60
2023-05-25T08:31:21.817Z,21.50
2023-05-25T08:33:49.581Z,21.50
2023-05-25T08:36:18.124Z,21.50
2023-05-25T08:38:46.104Z,21.60
2023-05-25T08:41:14.161Z,21.60
2023-05-25T08:43:43.010Z,21.60
2023-05-25T08:46:10.831Z,21.60
2023-05-25T08:48:42.387Z,21.60
2023-05-25T08:51:13.374Z,21.60
2023-05-25T08:53:41.813Z,21.60
2023-05-25T08:56:20.749Z,21.60
2023-05-25T08:58:57.693Z,21.70
2023-05-25T09:01:29.460Z,21.90
2023-05-25T09:03:59.501Z,22.00
2023-05-25T09:06:28.600Z,22.00
2023-05-25T09:08:56.825Z,22.20
2023-05-25T09:11:37.527Z,22.40
2023-05-25T09:14:11.950Z,22.70
2023-05-25T09:16:41.034Z,22.80
2023-05-25T09:19:09.194Z,23.10
2023-05-25T09:21:37.860Z,23.10
2023-05-25T09:24:06.480Z,23.20
2023-05-25T09:26:35.812Z,23.20
2023-05-25T09:29:03.984Z,23.30
2023-05-25T09:31:32.352Z,23.40
2023-05-25T09:34:00.889Z,23.50
2023-05-25T09:36:29.499Z,23.50
2023-05-25T09:38:58.427Z,23.60
2023-05-25T09:41:29.644Z,23.60
2023-05-25T09:44:06.599Z,23.70
2023-05-25T09:46:39.637Z,23.80
2023-05-25T09:49:10.986Z,23.70
2023-05-25T09:51:39.139Z,23.80
2023-05-25T09:54:11.386Z,23.80
2023-05-25T09:56:39.178Z,23.60
2023-05-25T09:59:06.960Z,23.50
2023-05-25T10:01:36.885Z,23.50
2023-05-25T10:04:05.625Z,23.60
2023-05-25T10:06:34.633Z,23.60
2023-05-25T10:09:05.355Z,23.80
2023-05-25T10:11:36.588Z,23.90
2023-05-25T10:14:07.883Z,24.00
2023-05-25T10:16:37.820Z,24.20
2023-05-25T10:19:16.405Z,24.20
2023-05-25T10:21:50.937Z,24.20
2023-05-25T10:24:38.716Z,24.30
2023-05-25T10:27:25.783Z,24.50
2023-05-25T10:29:57.135Z,24.70
2023-05-25T10:32:26.366Z,24.80
2023-05-25T10:34:55.696Z,24.70
2023-05-25T10:37:26.531Z,24.90
2023-05-25T10:39:57.073Z,25.00
2023-05-25T10:42:26.389Z,25.20
2023-05-25T10:44:55.003Z,25.40
2023-05-25T10:47:23.102Z,25.40
2023-05-25T10:49:59.090Z,25.60
2023-05-25T10:52:31.158Z,25.60
2023-05-25T10:55:02.162Z,25.80
2023-05-25T10:57:30.195Z,25.90
2023-05-25T11:00:08.891Z,26.00
2023-05-25T11:02:51.670Z,26.00
2023-05-25T11:05:31.413Z,26.10
2023-05-25T11:08:05.601Z,26.00
2023-05-25T11:10:49.373Z,26.20
2023-05-25T11:13:32.298Z,26.40
2023-05-25T11:16:29.548Z,26.70
2023-05-25T11:18:59.204Z,26.70
2023-05-25T11:21:32.836Z,26.70
2023-05-25T11:24:10.897Z,26.80
2023-05-25T11:26:56.686Z,27.00
2023-05-25T11:29:27.384Z,27.10
2023-05-25T11:31:56.798Z,27.30
2023-05-25T11:34:29.151Z,27.30
2023-05-25T11:37:04.055Z,27.50
2023-05-25T11:39:31.984Z,27.50
2023-05-25T11:42:04.697Z,27.60
2023-05-25T11:44:34.103Z,27.60
2023-05-25T11:47:08.949Z,27.90
2023-05-25T11:49:46.238Z,28.20
2023-05-25T11:52:15.646Z,28.20
2023-05-25T11:54:44.320Z,28.30
2023-05-25T11:57:27.771Z,28.40
2023-05-25T11:59:57.984Z,28.50
2023-05-25T12:02:26.303Z,28.70
2023-05-25T12:04:59.278Z,28.80
2023-05-25T12:07:31.752Z,28.90
2023-05-25T12:10:11.385Z,28.80
2023-05-25T12:12:43.613Z,28.80
2023-05-25T12:15:14.020Z,28.90
2023-05-25T12:17:43.646Z,28.90
2023-05-25T12:20:12.947Z,28.80
2023-05-25T12:22:41.672Z,28.80
2023-05-25T12:25:11.287Z,28.90
2023-05-25T12:27:40.414Z,28.90
2023-05-25T12:30:09.927Z,29.10
2023-05-25T12:33:02.839Z,29.10
2023-05-25T12:35:48.744Z,29.00
2023-05-25T12:38:22.161Z,29.10
2023-05-25T12:41:06.712Z,29.20
2023-05-25T12:43:39.575Z,29.40
2023-05-25T12:46:07.530Z,29.60
2023-05-25T12:48:35.968Z,29.70
2023-05-25T12:51:04.033Z,29.70
2023-05-25T12:53:31.939Z,29.40
2023-05-25T12:56:04.454Z,29.40
2023-05-25T12:58:32.346Z,29.60
2023-05-25T13:01:00.335Z,29.60
2023-05-25T13:03:28.071Z,29.60
2023-05-25T13:06:03.839Z,29.70
2023-05-25T13:08:31.673Z,29.50
2023-05-25T13:11:00.298Z,29.60
2023-05-25T13:13:28.123Z,29.60
2023-05-25T13:15:56.033Z,29.80
2023-05-25T13:18:23.859Z,29.80
2023-05-25T13:20:55.193Z,29.90
2023-05-25T13:23:24.431Z,29.90
2023-05-25T13:25:52.222Z,30.20
2023-05-25T13:28:19.966Z,30.40
2023-05-25T13:30:47.767Z,30.60
2023-05-25T13:33:15.672Z,30.20
2023-05-25T13:35:57.943Z,30.20
2023-05-25T13:38:26.245Z,30.30
2023-05-25T13:40:53.906Z,30.30
2023-05-25T13:43:22.070Z,30.10
2023-05-25T13:45:49.968Z,29.80
2023-05-25T13:48:17.780Z,30.20
2023-05-25T13:50:45.941Z,30.50
2023-05-25T13:53:14.468Z,30.50
2023-05-25T13:55:42.323Z,30.50
2023-05-25T13:58:10.436Z,30.30
2023-05-25T14:00:38.242Z,30.10
2023-05-25T14:03:06.860Z,30.20
2023-05-25T14:05:34.839Z,30.10
2023-05-25T14:08:04.999Z,30.40
2023-05-25T14:10:32.866Z,30.50
2023-05-25T14:13:00.861Z,30.30
2023-05-25T14:15:28.838Z,30.20
2023-05-25T14:17:57.595Z,30.20
2023-05-25T14:20:26.514Z,30.20
2023-05-25T14:22:54.552Z,30.00
2023-05-25T14:25:22.380Z,30.10
2023-05-25T14:27:50.101Z,30.20
2023-05-25T14:30:17.949Z,30.20
2023-05-25T14:32:45.685Z,30.00
2023-05-25T14:35:13.491Z,29.80
2023-05-25T14:37:41.759Z,29.80
2023-05-25T14:40:10.055Z,29.80
2023-05-25T14:42:37.821Z,30.10
2023-05-25T14:45:07.087Z,30.00
2023-05-25T14:47:35.889Z,30.10
2023-05-25T14:50:03.722Z,30.30
2023-05-25T14:52:31.484Z,30.40
2023-05-25T14:54:59.217Z,30.30
2023-05-25T14:57:27.453Z,30.30
2023-05-25T14:59:55.128Z,30.40
2023-05-25T15:02:23.034Z,30.40
2023-05-25T15:04:51.055Z,30.40
2023-05-25T15:07:18.875Z,30.40
2023-05-25T15:09:46.924Z,30.40
2023-05-25T15:12:15.155Z,30.00
2023-05-25T15:14:43.077Z,30.00
2023-05-25T15:17:11.228Z,29.80
2023-05-25T15:19:38.910Z,30.00
2023-05-25T15:22:06.659Z,30.00
2023-05-25T15:24:34.490Z,30.00
2023-05-25T15:27:05.220Z,30.10
2023-05-25T15:29:32.953Z,30.00
2023-05-25T15:32:01.191Z,30.00
2023-05-25T15:34:29.202Z,30.00
2023-05-25T15:36:57.010Z,30.00
2023-05-25T15:39:24.789Z,29.70
2023-05-25T15:41:52.513Z,29.70
2023-05-25T15:44:21.423Z,29.70
2023-05-25T15:46:49.246Z,29.50
2023-05-25T15:49:17.074Z,29.50
2023-05-25T15:51:44.869Z,29.50
2023-05-25T15:54:14.719Z,29.40
2023-05-25T15:56:42.694Z,29.20
2023-05-25T15:59:12.587Z,29.10
2023-05-25T16:01:40.826Z,29.00
2023-05-25T16:04:08.791Z,29.10
2023-05-25T16:06:37.045Z,29.00
2023-05-25T16:09:05.183Z,28.70
2023-05-25T16:11:34.354Z,28.40
2023-05-25T16:14:02.233Z,28.30
2023-05-25T16:16:30.064Z,28.30
2023-05-25T16:18:57.905Z,28.40
2023-05-25T16:21:25.975Z,28.30
2023-05-25T16:23:53.743Z,28.30
2023-05-25T16:26:22.771Z,28.30
2023-05-25T16:28:50.627Z,28.10
2023-05-25T16:31:18.596Z,28.20
2023-05-25T16:33:46.503Z,28.10
2023-05-25T16:36:14.361Z,28.10
2023-05-25T16:38:42.129Z,27.60
2023-05-25T16:41:09.864Z,27.60
2023-05-25T16:43:37.709Z,27.70
2023-05-25T16:46:06.470Z,27.70
2023-05-25T16:48:35.741Z,27.80
2023-05-25T16:51:07.607Z,27.70
2023-05-25T16:53:35.354Z,27.80
2023-05-25T16:56:03.082Z,28.10
2023-05-25T16:58:30.813Z,28.30
2023-05-25T17:00:58.623Z,28.60
2023-05-25T17:03:26.479Z,28.60
2023-05-25T17:05:54.401Z,28.80
2023-05-25T17:08:22.195Z,29.10
2023-05-25T17:10:50.366Z,29.30
2023-05-25T17:13:18.131Z,29.30
2023-05-25T17:15:46.247Z,29.30
2023-05-25T17:18:14.228Z,29.30
2023-05-25T17:20:42.057Z,29.20
2023-05-25T17:23:09.896Z,28.90
2023-05-25T17:25:39.571Z,28.70
2023-05-25T17:28:07.328Z,28.70
2023-05-25T17:30:35.201Z,28.20
2023-05-25T17:33:02.925Z,27.50
2023-05-25T17:35:30.914Z,27.30
2023-05-25T17:37:58.671Z,26.90
2023-05-25T17:40:26.499Z,26.60
2023-05-25T17:42:54.476Z,26.50
2023-05-25T17:45:22.471Z,26.40
2023-05-25T17:47:50.532Z,26.00
2023-05-25T17:50:18.543Z,25.90
2023-05-25T17:52:46.865Z,25.70
2023-05-25T17:55:14.646Z,25.60
2023-05-25T17:57:42.323Z,25.40
2023-05-25T18:00:10.697Z,25.30
2023-05-25T18:02:41.559Z,25.20
2023-05-25T18:05:09.542Z,25.10
2023-05-25T18:07:37.301Z,24.90
2023-05-25T18:10:05.578Z,24.90
2023-05-25T18:12:33.362Z,24.90
2023-05-25T18:15:01.162Z,25.10
2023-05-25T18:17:28.892Z,25.20
2023-05-25T18:19:56.911Z,25.30
2023-05-25T18:22:24.684Z,25.40
2023-05-25T18:24:52.445Z,25.50
2023-05-25T18:27:20.205Z,25.40
2023-05-25T18:29:48.132Z,25.40
2023-05-25T18:32:16.021Z,25.20
2023-05-25T18:34:45.298Z,24.80
2023-05-25T18:37:13.111Z,24.80
2023-05-25T18:39:41.257Z,24.80
2023-05-25T18:42:09.171Z,24.80
2023-05-25T18:44:36.975Z,24.80
2023-05-25T18:47:05.089Z,24.40
2023-05-25T18:49:34.717Z,24.10
2023-05-25T18:52:02.518Z,24.10
2023-05-25T18:54:30.400Z,24.00
2023-05-25T18:56:58.075Z,23.90
2023-05-25T18:59:25.944Z,23.80
2023-05-25T19:01:53.641Z,23.70
2023-05-25T19:04:21.582Z,23.70
2023-05-25T19:06:49.423Z,23.60
2023-05-25T19:09:17.096Z,23.50
2023-05-25T19:11:44.865Z,23.50
2023-05-25T19:14:12.629Z,23.70
2023-05-25T19:16:40.459Z,23.70
2023-05-25T19:19:08.302Z,23.70
2023-05-25T19:21:36.673Z,23.80
2023-05-25T19:24:04.570Z,24.00
2023-05-25T19:26:32.506Z,23.90
2023-05-25T19:29:00.376Z,23.70
2023-05-25T19:31:28.163Z,23.40
2023-05-25T19:33:56.057Z,23.20
2023-05-25T19:36:23.909Z,23.20
2023-05-25T19:38:51.655Z,23.10
2023-05-25T19:41:19.398Z,23.00
2023-05-25T19:43:48.033Z,22.90
2023-05-25T19:46:16.131Z,23.00
2023-05-25T19:48:44.205Z,22.80
2023-05-25T19:51:12.645Z,22.90
2023-05-25T19:53:40.944Z,22.80
2023-05-25T19:56:09.034Z,22.80
2023-05-25T19:58:36.912Z,22.90
2023-05-25T20:01:04.744Z,22.90
2023-05-25T20:03:32.643Z,23.10
2023-05-25T20:06:00.605Z,23.30
2023-05-25T20:08:28.629Z,23.40
2023-05-25T20:10:56.414Z,23.50
2023-05-25T20:13:24.149Z,23.30
2023-05-25T20:15:51.903Z,23.10
2023-05-25T20:18:19.816Z,23.10
2023-05-25T20:20:47.659Z,23.20
2023-05-25T20:23:15.733Z,23.20
2023-05-25T20:25:43.762Z,23.20
2023-05-25T20:28:11.794Z,23.10
2023-05-25T20:30:39.603Z,23.00
2023-05-25T20:33:07.609Z,23.00
2023-05-25T20:35:37.664Z,23.00
2023-05-25T20:38:05.960Z,23.00
2023-05-25T20:40:33.911Z,23.00
2023-05-25T20:43:01.917Z,22.90
2023-05-25T20:45:29.898Z,22.90
2023-05-25T20:48:02.251Z,23.00
2023-05-25T20:50:30.775Z,23.00
2023-05-25T20:52:58.644Z,22.90
2023-05-25T20:55:26.700Z,22.90
2023-05-25T20:57:54.782Z,22.90
2023-05-25T21:00:24.955Z,22.90
2023-05-25T21:02:52.790Z,22.80
2023-05-25T21:05:20.756Z,22.80
2023-05-25T21:07:48.462Z,22.80
2023-05-25T21:10:16.327Z,22.70
2023-05-25T21:12:44.157Z,22.60
2023-05-25T21:15:11.916Z,22.60
2023-05-25T21:17:39.767Z,22.50
2023-05-25T21:20:08.014Z,22.50
2023-05-25T21:22:36.070Z,22.50
2023-05-25T21:25:05.075Z,22.50
2023-05-25T21:27:32.808Z,22.30
2023-05-25T21:30:00.926Z,22.30
2023-05-25T21:32:28.868Z,22.30
2023-05-25T21:34:56.781Z,22.40
2023-05-25T21:37:25.453Z,22.30
2023-05-25T21:39:53.169Z,22.40
2023-05-25T21:42:21.010Z,22.40
2023-05-25T21:44:48.931Z,22.40
2023-05-25T21:47:16.733Z,22.40
2023-05-25T21:49:44.504Z,22.50
2023-05-25T21:52:19.702Z,22.40
2023-05-25T21:54:47.547Z,22.40
2023-05-25T21:57:15.331Z,22.40
2023-05-25T21:59:43.059Z,22.30
2023-05-25T22:02:11.481Z,22.30
2023-05-25T22:04:39.413Z,22.30
2023-05-25T22:07:07.205Z,22.30
2023-05-25T22:09:35.010Z,22.20
2023-05-25T22:12:02.868Z,22.20
2023-05-25T22:14:30.707Z,22.10
2023-05-25T22:16:58.429Z,22.00
2023-05-25T22:19:26.197Z,21.80
2023-05-25T22:21:54.074Z,21.60
2023-05-25T22:24:21.962Z,21.60
2023-05-25T22:26:49.705Z,21.60
2023-05-25T22:29:17.524Z,21.70
2023-05-25T22:31:45.427Z,21.60
2023-05-25T22:34:13.112Z,21.90
2023-05-25T22:36:40.917Z,21.90
2023-05-25T22:39:08.788Z,21.80
2023-05-25T22:41:36.569Z,21.70
2023-05-25T22:44:04.341Z,21.60
2023-05-25T22:46:32.306Z,21.60
2023-05-25T22:49:00.048Z,21.50
2023-05-25T22:51:27.900Z,21.50
2023-05-25T22:53:55.757Z,21.50
2023-05-25T22:56:23.516Z,21.40
2023-05-25T22:58:51.285Z,21.40
2023-05-25T23:01:19.159Z,21.40
2023-05-25T23:03:46.950Z,21.20
2023-05-25T23:06:14.837Z,20.80
2023-05-25T23:08:44.163Z,20.50
2023-05-25T23:11:11.968Z,20.30
2023-05-25T23:13:41.678Z,20.50
2023-05-25T23:16:10.107Z,20.70
2023-05-25T23:18:37.771Z,20.60
2023-05-25T23:21:05.905Z,20.40
2023-05-25T23:23:33.711Z,20.60
2023-05-25T23:26:01.354Z,20.60
2023-05-25T23:28:29.330Z,20.70
2023-05-25T23:30:57.482Z,20.90
2023-05-25T23:33:25.247Z,20.90
2023-05-25T23:35:52.929Z,20.90
2023-05-25T23:38:20.797Z,20.90
2023-05-25T23:40:48.665Z,20.80
2023-05-25T23:43:16.518Z,20.60
2023-05-25T23:45:44.490Z,20.50
2023-05-25T23:48:12.543Z,20.60
2023-05-25T23:50:41.228Z,20.10
2023-05-25T23:53:09.078Z,20.10
2023-05-25T23:55:36.749Z,20.20
2023-05-25T23:58:04.492Z,20.40
